Brad Bennink — WDD4338 — position and weather

sailwx.info

Track history (hours):
 
Tides and Currents Weather Stations Pressure Air Temp Water Temp Dewpoint Dewpoint Depression Visibility Wind Speed Wind Dir Waves Ship Positions

Brad Bennink

Owner: American Commercial Lines LLC, Jeffersonville, IN. More information available from US FCC via Universal Licensing System and Coast Guard Vessel Documentation Center.

Last reported at 2018-Apr-22 17:53 UTC. Time now 2018-Apr-24 01:14 UTC.
Position N 38°39' W 090°11'.

Length 39 m; draft 2.9 m.

Type: Towing. MMSI: 367143450.

Date/timePositionNaut miles runAvg speedWind from/ knotsBaromVisibWave heightAir tempDewpointWater temp
2018-Apr-22 17:53N 38°39' W 090°11'4 2.3
2018-Apr-22 15:58N 38°43' W 090°10'0 0.2
2018-Apr-22 15:29N 38°44' W 090°10'1 0.8
2018-Apr-22 14:53N 38°44' W 090°10'4 4.0
2018-Apr-22 13:57N 38°47' W 090°07'2 5.6
2018-Apr-22 13:30N 38°50' W 090°07'3 5.4
2018-Apr-22 13:00N 38°52' W 090°09'0 0.1
2018-Apr-22 12:30N 38°52' W 090°09'0 0.0
2018-Apr-22 12:00N 38°52' W 090°09'0 0.0
2018-Apr-22 11:30N 38°52' W 090°09'0 0.2
2018-Apr-22 11:00N 38°52' W 090°09'0 0.9
2018-Apr-22 10:30N 38°52' W 090°09'0 1.0
2018-Apr-22 10:00N 38°52' W 090°10'2 4.4
2018-Apr-22 09:30N 38°54' W 090°12'1 2.4
2018-Apr-22 09:00N 38°55' W 090°13'0 0.0
2018-Apr-22 08:30N 38°55' W 090°13'0 0.3
2018-Apr-22 08:00N 38°55' W 090°13'2 3.7
2018-Apr-22 07:30N 38°55' W 090°15'3 5.3
2018-Apr-22 07:00N 38°55' W 090°19'3 5.3
2018-Apr-22 06:30N 38°57' W 090°22'3 5.6
2018-Apr-22 06:00N 38°58' W 090°25'3 5.3
2018-Apr-22 05:30N 38°58' W 090°28'2 4.1
2018-Apr-22 04:59N 38°57' W 090°31'2 4.0
2018-Apr-22 04:29N 38°58' W 090°33'2 4.5
2018-Apr-22 04:00N 39°00' W 090°34'2 4.3
2018-Apr-22 03:30N 39°02' W 090°35'3 3.5
2018-Apr-22 02:46N 39°05' W 090°35'2 4.4
2018-Apr-22 02:19N 39°07' W 090°36'  
2018-Apr-18 04:04N 39°12' W 090°36'1 4.2
2018-Apr-18 03:53N 39°11' W 090°36'2 1.0
2018-Apr-18 01:37N 39°09' W 090°37'1 4.4
2018-Apr-18 01:29N 39°08' W 090°37'2 4.3
2018-Apr-18 01:00N 39°06' W 090°36'2 4.5
2018-Apr-18 00:30N 39°04' W 090°35'2 3.2
2018-Apr-17 23:58N 39°03' W 090°35'2 4.1
2018-Apr-17 23:30N 39°01' W 090°35'2 4.3
2018-Apr-17 23:00N 38°59' W 090°33'2 4.3
2018-Apr-17 22:30N 38°57' W 090°31'2 4.1
2018-Apr-17 22:00N 38°58' W 090°29'2 4.1
2018-Apr-17 21:29N 38°58' W 090°26'2 4.0
2018-Apr-17 21:00N 38°58' W 090°24'2 4.0
2018-Apr-17 20:30N 38°57' W 090°22'2 4.0
2018-Apr-17 20:00N 38°56' W 090°19'2 4.1
2018-Apr-17 19:30N 38°55' W 090°17'2 4.1
2018-Apr-17 19:00N 38°55' W 090°14'2 3.9
2018-Apr-17 18:30N 38°54' W 090°12'2 3.8
2018-Apr-17 18:00N 38°53' W 090°10'1 2.5
2018-Apr-17 17:30N 38°52' W 090°09'0 0.9
2018-Apr-17 17:00N 38°52' W 090°09'0 0.8
2018-Apr-17 16:30N 38°52' W 090°08'0 0.0
2018-Apr-17 15:59N 38°52' W 090°08'0 0.0
2018-Apr-17 15:30N 38°52' W 090°08'0 0.0
2018-Apr-17 15:00N 38°52' W 090°08'0 0.0
2018-Apr-17 14:30N 38°52' W 090°08'0 0.0
2018-Apr-17 14:00N 38°52' W 090°08'0 0.0
2018-Apr-17 13:30N 38°52' W 090°08'1 1.3
2018-Apr-17 12:59N 38°51' W 090°07'2 3.8
2018-Apr-17 12:30N 38°50' W 090°07'2 4.7
2018-Apr-17 12:00N 38°47' W 090°07'2 5.0
2018-Apr-17 11:30N 38°45' W 090°09'2 4.5
2018-Apr-17 10:58N 38°43' W 090°10'1 1.7
2018-Apr-17 10:18N 38°42' W 090°11'0 0.5
2018-Apr-17 09:56N 38°42' W 090°11'0 1.1
2018-Apr-17 09:30N 38°41' W 090°11'1 1.7
2018-Apr-17 09:00N 38°40' W 090°11'5 3.8
2018-Apr-17 07:49N 38°36' W 090°11'0 0.0
2018-Apr-17 07:29N 38°36' W 090°11'0 0.0
2018-Apr-17 05:39N 38°36' W 090°11'0 0.1
2018-Apr-17 04:06N 38°36' W 090°11'0 0.1
2018-Apr-17 03:48N 38°36' W 090°11'0 0.5
2018-Apr-17 02:48N 38°37' W 090°11'1 0.9
2018-Apr-17 02:03N 38°36' W 090°11'  
Track history (hours):
 
Tides and Currents Weather Stations Pressure Air Temp Water Temp Dewpoint Dewpoint Depression Visibility Wind Speed Wind Dir Waves Ship Positions

Brad Bennink

Owner: American Commercial Lines LLC, Jeffersonville, IN. More information available from US FCC via Universal Licensing System and Coast Guard Vessel Documentation Center.

Last reported at 2018-Apr-22 17:53 UTC. Time now 2018-Apr-24 01:14 UTC.
Position N 38°39' W 090°11'.

Length 39 m; draft 2.9 m.

Type: Towing. MMSI: 367143450.

Date/timePositionNaut miles runAvg speedWind from/ knotsBaromVisibWave heightAir tempDewpointWater temp
2018-Apr-22 17:53N 38°39' W 090°11'4 2.3
2018-Apr-22 15:58N 38°43' W 090°10'0 0.2
2018-Apr-22 15:29N 38°44' W 090°10'1 0.8
2018-Apr-22 14:53N 38°44' W 090°10'4 4.0
2018-Apr-22 13:57N 38°47' W 090°07'2 5.6
2018-Apr-22 13:30N 38°50' W 090°07'3 5.4
2018-Apr-22 13:00N 38°52' W 090°09'0 0.1
2018-Apr-22 12:30N 38°52' W 090°09'0 0.0
2018-Apr-22 12:00N 38°52' W 090°09'0 0.0
2018-Apr-22 11:30N 38°52' W 090°09'0 0.2
2018-Apr-22 11:00N 38°52' W 090°09'0 0.9
2018-Apr-22 10:30N 38°52' W 090°09'0 1.0
2018-Apr-22 10:00N 38°52' W 090°10'2 4.4
2018-Apr-22 09:30N 38°54' W 090°12'1 2.4
2018-Apr-22 09:00N 38°55' W 090°13'0 0.0
2018-Apr-22 08:30N 38°55' W 090°13'0 0.3
2018-Apr-22 08:00N 38°55' W 090°13'2 3.7
2018-Apr-22 07:30N 38°55' W 090°15'3 5.3
2018-Apr-22 07:00N 38°55' W 090°19'3 5.3
2018-Apr-22 06:30N 38°57' W 090°22'3 5.6
2018-Apr-22 06:00N 38°58' W 090°25'3 5.3
2018-Apr-22 05:30N 38°58' W 090°28'2 4.1
2018-Apr-22 04:59N 38°57' W 090°31'2 4.0
2018-Apr-22 04:29N 38°58' W 090°33'2 4.5
2018-Apr-22 04:00N 39°00' W 090°34'2 4.3
2018-Apr-22 03:30N 39°02' W 090°35'3 3.5
2018-Apr-22 02:46N 39°05' W 090°35'2 4.4
2018-Apr-22 02:19N 39°07' W 090°36'  
2018-Apr-18 04:04N 39°12' W 090°36'1 4.2
2018-Apr-18 03:53N 39°11' W 090°36'2 1.0
2018-Apr-18 01:37N 39°09' W 090°37'1 4.4
2018-Apr-18 01:29N 39°08' W 090°37'2 4.3
2018-Apr-18 01:00N 39°06' W 090°36'2 4.5
2018-Apr-18 00:30N 39°04' W 090°35'2 3.2
2018-Apr-17 23:58N 39°03' W 090°35'2 4.1
2018-Apr-17 23:30N 39°01' W 090°35'2 4.3
2018-Apr-17 23:00N 38°59' W 090°33'2 4.3
2018-Apr-17 22:30N 38°57' W 090°31'2 4.1
2018-Apr-17 22:00N 38°58' W 090°29'2 4.1
2018-Apr-17 21:29N 38°58' W 090°26'2 4.0
2018-Apr-17 21:00N 38°58' W 090°24'2 4.0
2018-Apr-17 20:30N 38°57' W 090°22'2 4.0
2018-Apr-17 20:00N 38°56' W 090°19'2 4.1
2018-Apr-17 19:30N 38°55' W 090°17'2 4.1
2018-Apr-17 19:00N 38°55' W 090°14'2 3.9
2018-Apr-17 18:30N 38°54' W 090°12'2 3.8
2018-Apr-17 18:00N 38°53' W 090°10'1 2.5
2018-Apr-17 17:30N 38°52' W 090°09'0 0.9
2018-Apr-17 17:00N 38°52' W 090°09'0 0.8
2018-Apr-17 16:30N 38°52' W 090°08'0 0.0
2018-Apr-17 15:59N 38°52' W 090°08'0 0.0
2018-Apr-17 15:30N 38°52' W 090°08'0 0.0
2018-Apr-17 15:00N 38°52' W 090°08'0 0.0
2018-Apr-17 14:30N 38°52' W 090°08'0 0.0
2018-Apr-17 14:00N 38°52' W 090°08'0 0.0
2018-Apr-17 13:30N 38°52' W 090°08'1 1.3
2018-Apr-17 12:59N 38°51' W 090°07'2 3.8
2018-Apr-17 12:30N 38°50' W 090°07'2 4.7
2018-Apr-17 12:00N 38°47' W 090°07'2 5.0
2018-Apr-17 11:30N 38°45' W 090°09'2 4.5
2018-Apr-17 10:58N 38°43' W 090°10'1 1.7
2018-Apr-17 10:18N 38°42' W 090°11'0 0.5
2018-Apr-17 09:56N 38°42' W 090°11'0 1.1
2018-Apr-17 09:30N 38°41' W 090°11'1 1.7
2018-Apr-17 09:00N 38°40' W 090°11'5 3.8
2018-Apr-17 07:49N 38°36' W 090°11'0 0.0
2018-Apr-17 07:29N 38°36' W 090°11'0 0.0
2018-Apr-17 05:39N 38°36' W 090°11'0 0.1
2018-Apr-17 04:06N 38°36' W 090°11'0 0.1
2018-Apr-17 03:48N 38°36' W 090°11'0 0.5
2018-Apr-17 02:48N 38°37' W 090°11'1 0.9
2018-Apr-17 02:03N 38°36' W 090°11'  

Dump ship's entire track history